Time;durP1;ratioP1;P1;durP2;ratioP2;P2;SDS_P1;SDS_P2;PMS_P1;PMS_P2;Temp;Humidity;BMP_temperature;BMP_pressure;BME280_temperature;BME280_humidity;BME280_pressure;Samples;Min_cycle;Max_cycle;Signal;HPM_P1;HPM_P2
2022/11/19 00:01:44;;;;;;;;;16.50;16.50;;;;;8.28;74.74;100085.13;5074097;28;45381;-70
2022/11/19 00:04:10;;;;;;;;;18.75;18.75;;;;;8.26;74.13;100081.72;5108952;27;45297;-70
2022/11/19 00:06:35;;;;;;;;;15.75;15.75;;;;;8.25;74.42;100087.88;5075614;28;45378;-70
2022/11/19 00:09:01;;;;;;;;;14.25;14.25;;;;;8.21;74.40;100082.84;5078084;27;45274;-69
2022/11/19 00:14:13;;;;;;;;;11.50;11.50;;;;;8.25;74.68;100087.03;5083741;28;45184;-70
2022/11/19 00:16:40;;;;;;;;;19.75;19.25;;;;;8.22;74.84;100085.38;5097587;27;47618;-71
2022/11/19 00:19:06;;;;;;;;;15.00;14.75;;;;;8.19;74.89;100081.13;5081414;27;45387;-69
2022/11/19 00:21:31;;;;;;;;;15.00;14.25;;;;;8.19;75.27;100086.38;5080704;28;45327;-70
2022/11/19 00:23:57;;;;;;;;;17.00;17.00;;;;;8.18;75.04;100087.28;5082289;27;45544;-70
2022/11/19 00:26:23;;;;;;;;;11.25;11.25;;;;;8.14;74.90;100076.97;5080970;27;46107;-71
2022/11/19 00:28:48;;;;;;;;;14.50;13.75;;;;;8.13;75.37;100075.25;5080857;27;45456;-70
2022/11/19 00:31:15;;;;;;;;;20.75;20.00;;;;;8.12;75.29;100068.31;5080942;28;45394;-70
2022/11/19 00:33:43;;;;;;;;;12.50;11.25;;;;;8.15;74.93;100078.66;5080880;27;45649;-69
2022/11/19 00:36:11;;;;;;;;;7.00;7.00;;;;;8.11;75.67;100077.06;5080208;27;45507;-69
2022/11/19 00:38:37;;;;;;;;;6.50;6.50;;;;;8.09;75.22;100082.38;5080555;27;45289;-70
2022/11/19 00:41:03;;;;;;;;;15.00;15.00;;;;;8.10;75.65;100084.09;5080727;27;45377;-70
2022/11/19 00:43:48;;;;;;;;;13.00;13.00;;;;;8.12;75.53;100076.16;5080941;27;45493;-68
2022/11/19 00:46:14;;;;;;;;;12.75;12.75;;;;;8.06;75.35;100072.03;5079916;27;45596;-69
2022/11/19 00:48:40;;;;;;;;;12.75;12.75;;;;;8.08;75.56;100077.19;5080622;27;45185;-69
2022/11/19 00:51:07;;;;;;;;;7.00;7.00;;;;;8.02;75.47;100073.91;5080806;27;45366;-70
2022/11/19 00:53:32;;;;;;;;;8.50;8.50;;;;;8.05;75.87;100083.41;5081167;27;45235;-70
2022/11/19 00:56:03;;;;;;;;;6.75;6.75;;;;;8.04;75.65;100084.34;5080599;27;45449;-70
2022/11/19 00:58:29;;;;;;;;;9.00;8.00;;;;;8.04;76.33;100085.16;5080755;27;45471;-69
2022/11/19 01:00:55;;;;;;;;;5.25;5.25;;;;;8.00;75.84;100073.09;5080631;27;45433;-69
2022/11/19 01:03:21;;;;;;;;;6.00;6.00;;;;;8.00;75.96;100078.34;5080692;27;45295;-69
2022/11/19 01:05:46;;;;;;;;;7.00;7.00;;;;;7.95;75.73;100067.19;5080395;27;45438;-70
2022/11/19 01:08:11;;;;;;;;;11.75;11.75;;;;;7.97;76.19;100083.69;5079768;28;57379;-70
2022/11/19 01:10:37;;;;;;;;;10.25;10.25;;;;;7.93;76.22;100076.88;5080433;27;45275;-68
2022/11/19 01:15:48;;;;;;;;;7.00;7.00;;;;;7.97;76.54;100090.72;5079972;28;45222;-69
2022/11/19 01:18:14;;;;;;;;;16.50;16.50;;;;;7.95;76.24;100089.88;5080065;28;45334;-69
2022/11/19 01:20:39;;;;;;;;;25.50;24.50;;;;;7.91;76.41;100086.53;5077231;27;45440;-69
2022/11/19 01:23:05;;;;;;;;;11.00;10.00;;;;;7.94;76.68;100090.78;5076954;27;45408;-70
2022/11/19 01:25:30;;;;;;;;;15.50;14.50;;;;;7.92;76.76;100084.75;5076382;27;46323;-68
2022/11/19 01:27:57;;;;;;;;;12.00;12.00;;;;;7.97;77.00;100093.34;5076818;27;45303;-69
2022/11/19 01:30:22;;;;;;;;;7.00;6.75;;;;;7.98;77.08;100089.81;5076674;27;45354;-69
2022/11/19 01:32:48;;;;;;;;;12.00;12.00;;;;;8.00;76.59;100101.06;5076823;27;45492;-68
2022/11/19 01:35:13;;;;;;;;;9.00;9.00;;;;;7.98;76.50;100105.50;5076512;27;46452;-69
2022/11/19 01:37:38;;;;;;;;;10.75;10.00;;;;;7.96;76.40;100113.41;5075118;28;46053;-69
2022/11/19 01:40:04;;;;;;;;;11.00;10.75;;;;;7.94;76.46;100120.47;5076780;27;45305;-72
2022/11/19 01:42:49;;;;;;;;;10.00;8.50;;;;;7.92;76.96;100113.56;5076553;28;45589;-69
2022/11/19 01:45:35;;;;;;;;;11.00;11.00;;;;;7.87;76.74;100111.13;5076576;27;46392;-70
2022/11/19 01:48:20;;;;;;;;;6.00;6.00;;;;;7.82;76.85;100113.06;5076787;27;45302;-69
2022/11/19 01:50:52;;;;;;;;;7.00;7.00;;;;;7.81;76.36;100109.59;5077317;27;45288;-70
2022/11/19 01:53:19;;;;;;;;;7.25;7.25;;;;;7.81;76.82;100117.44;5076921;27;45567;-69
2022/11/19 01:55:46;;;;;;;;;7.50;7.50;;;;;7.81;76.79;100121.84;5092216;27;48449;-70
2022/11/19 01:58:15;;;;;;;;;7.00;7.00;;;;;7.78;77.13;100114.94;5076585;28;45268;-71
2022/11/19 02:00:41;;;;;;;;;6.00;6.00;;;;;7.77;77.16;100120.25;5076593;27;45357;-70
2022/11/19 02:03:08;;;;;;;;;6.00;6.00;;;;;7.75;77.09;100117.66;5076465;27;45371;-70
2022/11/19 02:05:34;;;;;;;;;4.75;4.75;;;;;7.68;77.01;100109.19;5076716;27;45606;-70
2022/11/19 02:08:05;;;;;;;;;6.00;6.00;;;;;7.74;77.45;100122.06;5076335;27;45358;-69
2022/11/19 02:10:50;;;;;;;;;6.75;6.75;;;;;7.71;77.74;100110.81;5074824;27;45464;-69
2022/11/19 02:13:40;;;;;;;;;5.00;5.00;;;;;7.74;77.95;100118.56;5075157;28;45414;-70
2022/11/19 02:16:37;;;;;;;;;6.50;6.50;;;;;7.71;77.84;100114.31;5075753;27;46385;-69
2022/11/19 02:19:24;;;;;;;;;7.00;7.00;;;;;7.66;77.59;100103.16;5075926;27;45260;-70
2022/11/19 02:22:10;;;;;;;;;5.75;5.25;;;;;7.69;77.50;100110.03;5076127;28;45372;-70
2022/11/19 02:25:01;;;;;;;;;4.75;4.75;;;;;7.73;77.53;100119.47;5077739;27;45287;-70
2022/11/19 02:27:29;;;;;;;;;6.75;6.75;;;;;7.72;77.96;100113.41;5075888;27;46829;-69
2022/11/19 02:30:04;;;;;;;;;6.50;6.50;;;;;7.72;77.52;100113.41;5076369;27;45564;-69
2022/11/19 02:32:43;;;;;;;;;7.00;7.00;;;;;7.72;77.69;100121.25;5075170;27;45248;-69
2022/11/19 02:35:23;;;;;;;;;5.75;5.75;;;;;7.70;77.94;100119.59;5091656;27;45413;-68
2022/11/19 02:37:59;;;;;;;;;5.00;5.00;;;;;7.68;77.99;100126.63;5091245;27;47242;-70
2022/11/19 02:40:30;;;;;;;;;5.00;5.00;;;;;7.66;77.89;100118.84;5076347;27;45468;-70
2022/11/19 02:43:09;;;;;;;;;5.50;5.50;;;;;7.66;77.49;100113.63;5076017;28;45267;-69
2022/11/19 02:45:43;;;;;;;;;4.50;4.50;;;;;7.69;78.41;100113.50;5075686;28;45315;-70
2022/11/19 02:48:18;;;;;;;;;7.25;7.25;;;;;7.70;77.76;100109.97;5075329;27;46611;-70
2022/11/19 02:50:49;;;;;;;;;6.25;6.25;;;;;7.72;78.31;100113.41;5075102;27;45363;-69
2022/11/19 02:53:14;;;;;;;;;6.25;6.25;;;;;7.72;78.42;100113.41;5075035;27;45305;-69
2022/11/19 02:55:40;;;;;;;;;6.75;6.75;;;;;7.68;78.02;100111.81;5076175;27;45464;-70
2022/11/19 03:04:28;;;;;;;;;6.25;6.25;;;;;7.69;77.63;100107.41;5076478;27;45430;-69
2022/11/19 03:04:42;;;;;;;;;6.50;6.50;;;;;7.71;77.51;100121.28;5075220;28;45262;-70
2022/11/19 03:06:37;;;;;;;;;8.00;8.00;;;;;7.70;78.38;100109.13;5070682;27;45800;-69
2022/11/19 03:09:03;;;;;;;;;6.75;6.75;;;;;7.74;77.94;100115.94;5075273;27;45325;-69
2022/11/19 03:11:30;;;;;;;;;7.25;6.75;;;;;7.77;78.13;100107.16;5075257;27;45421;-69
2022/11/19 03:17:14;;;;;;;;;8.00;8.00;;;;;7.78;78.09;100114.94;5075123;28;45342;-70
2022/11/19 03:20:03;;;;;;;;;6.50;6.50;;;;;7.80;77.68;100114.88;5075208;28;46781;-68
2022/11/19 03:22:37;;;;;;;;;6.00;6.00;;;;;7.87;78.33;100122.44;5074951;27;45453;-69
2022/11/19 03:25:17;;;;;;;;;7.00;7.00;;;;;7.87;78.15;100122.44;5075132;27;45384;-70
2022/11/19 03:27:47;;;;;;;;;6.00;6.00;;;;;7.86;78.38;100125.13;5075829;27;45337;-70
2022/11/19 03:30:15;;;;;;;;;8.75;8.75;;;;;7.87;78.30;100122.44;5075236;27;45432;-69
2022/11/19 03:32:50;;;;;;;;;7.75;7.75;;;;;7.92;78.37;100131.91;5074676;27;45207;-69
2022/11/19 03:35:24;;;;;;;;;7.25;7.25;;;;;7.90;78.27;100129.34;5075202;27;45417;-70
2022/11/19 03:37:54;;;;;;;;;7.50;7.50;;;;;7.88;78.59;100123.31;5075445;27;45455;-69
2022/11/19 03:40:22;;;;;;;;;6.25;6.25;;;;;7.86;78.41;100123.34;5075091;27;47181;-70
2022/11/19 03:42:52;;;;;;;;;6.00;6.00;;;;;7.93;78.01;100142.34;5074550;28;45433;-70
2022/11/19 03:45:24;;;;;;;;;8.00;8.00;;;;;7.88;77.91;100139.88;5075128;27;45318;-69
2022/11/19 03:47:52;;;;;;;;;7.00;7.00;;;;;7.85;77.69;100139.13;5075092;27;45366;-69
2022/11/19 03:50:32;;;;;;;;;6.75;6.75;;;;;7.82;78.06;100137.47;5074586;28;46451;-70
2022/11/19 03:52:58;;;;;;;;;7.75;7.50;;;;;7.75;78.58;100131.63;5075658;27;45757;-69
2022/11/19 03:55:32;;;;;;;;;6.75;6.75;;;;;7.75;77.75;100131.63;5074805;27;45478;-69
2022/11/19 03:58:06;;;;;;;;;7.75;7.75;;;;;7.71;78.04;100135.25;5074972;28;45363;-69
2022/11/19 04:00:32;;;;;;;;;7.00;7.00;;;;;7.70;78.70;100137.91;5074126;28;45542;-70
2022/11/19 04:02:58;;;;;;;;;10.00;10.00;;;;;7.73;78.07;100140.41;5074761;27;45304;-70
2022/11/19 04:05:23;;;;;;;;;7.00;7.00;;;;;7.71;78.50;100143.13;5074327;27;45323;-70
2022/11/19 04:07:49;;;;;;;;;9.50;8.00;;;;;7.71;78.70;100134.38;5074506;28;45426;-69
2022/11/19 04:10:14;;;;;;;;;10.25;9.00;;;;;7.71;79.17;100140.50;5075259;27;45379;-70
2022/11/19 04:12:40;;;;;;;;;6.75;6.75;;;;;7.76;78.67;100145.53;5074293;27;45909;-69
2022/11/19 04:15:06;;;;;;;;;5.75;5.75;;;;;7.78;79.12;100137.66;5074216;27;45423;-69
2022/11/19 04:17:31;;;;;;;;;6.00;6.00;;;;;7.77;78.54;100142.03;5071727;27;45304;-69
2022/11/19 04:19:56;;;;;;;;;6.00;6.00;;;;;7.77;78.76;100138.56;5072379;28;47943;-69
2022/11/19 04:22:21;;;;;;;;;9.75;9.75;;;;;7.78;79.30;100138.50;5073523;28;49396;-69
2022/11/19 04:24:47;;;;;;;;;5.25;5.25;;;;;7.81;78.78;100148.03;5073006;27;45417;-70
2022/11/19 04:27:12;;;;;;;;;8.00;8.00;;;;;7.82;78.72;100147.94;5072890;28;45566;-70
2022/11/19 04:29:37;;;;;;;;;7.75;7.75;;;;;7.79;78.77;100148.06;5072642;27;47041;-69
2022/11/19 04:32:03;;;;;;;;;6.00;6.00;;;;;7.82;79.04;100155.81;5073023;27;45506;-69
2022/11/19 04:34:28;;;;;;;;;6.00;6.00;;;;;7.85;78.90;100160.09;5073085;28;45378;-68
2022/11/19 04:36:54;;;;;;;;;6.00;6.00;;;;;7.88;78.85;100162.59;5074082;28;45606;-69
2022/11/19 04:39:19;;;;;;;;;8.25;8.25;;;;;7.90;78.86;100158.16;5075395;27;45307;-68
2022/11/19 04:41:44;;;;;;;;;6.00;6.00;;;;;7.94;78.93;100170.22;5073695;28;45172;-69
2022/11/19 04:44:10;;;;;;;;;6.25;6.25;;;;;7.96;79.06;100172.81;5072973;28;45711;-69
2022/11/19 04:46:35;;;;;;;;;8.00;8.00;;;;;7.95;78.30;100181.56;5074629;28;45428;-68
2022/11/19 04:49:01;;;;;;;;;6.50;6.50;;;;;7.93;78.88;100167.66;5073825;28;45583;-69
2022/11/19 04:51:26;;;;;;;;;6.50;6.50;;;;;7.95;79.01;100173.69;5073757;27;45351;-68
2022/11/19 04:53:52;;;;;;;;;7.25;7.25;;;;;7.94;79.01;100164.13;5073642;28;45387;-68
2022/11/19 04:56:18;;;;;;;;;7.75;7.75;;;;;7.98;79.06;100165.75;5075635;28;45252;-68
2022/11/19 04:58:43;;;;;;;;;8.50;8.50;;;;;7.99;79.28;100168.31;5077471;27;45336;-69
2022/11/19 05:01:08;;;;;;;;;8.00;8.00;;;;;8.01;78.84;100176.13;5076476;28;51612;-70
2022/11/19 05:03:34;;;;;;;;;8.00;8.00;;;;;8.01;79.13;100179.59;5077774;28;45294;-70
2022/11/19 05:05:59;;;;;;;;;8.00;8.00;;;;;8.00;79.44;100174.41;5078305;28;45579;-69
2022/11/19 05:08:24;;;;;;;;;8.50;8.50;;;;;8.05;79.09;100182.97;5077021;28;46283;-69
2022/11/19 05:10:50;;;;;;;;;7.75;7.75;;;;;8.02;79.23;100173.44;5076709;28;45450;-69
2022/11/19 05:13:15;;;;;;;;;7.75;7.75;;;;;8.07;79.43;100175.91;5077035;28;45223;-70
2022/11/19 05:15:41;;;;;;;;;8.00;8.00;;;;;8.10;79.02;100185.41;5075547;28;47954;-69
2022/11/19 05:18:06;;;;;;;;;7.00;7.00;;;;;8.11;79.18;100189.72;5077959;28;45381;-69
2022/11/19 05:20:31;;;;;;;;;9.25;8.75;;;;;8.10;79.01;100185.41;5076947;28;51892;-68
2022/11/19 05:22:57;;;;;;;;;8.00;8.00;;;;;8.10;78.64;100188.00;5077240;28;45318;-69
2022/11/19 05:25:22;;;;;;;;;9.25;9.25;;;;;8.09;79.18;100189.78;5077366;28;45318;-69
2022/11/19 05:27:47;;;;;;;;;7.00;7.00;;;;;8.06;79.14;100184.66;5076679;28;45461;-70
2022/11/19 05:30:13;;;;;;;;;8.75;8.75;;;;;7.99;79.50;100181.41;5075121;28;45311;-69
2022/11/19 05:32:38;;;;;;;;;8.25;8.25;;;;;7.97;78.94;100190.25;5076737;28;45720;-68
2022/11/19 05:35:05;;;;;;;;;7.50;7.50;;;;;7.95;79.07;100195.50;5077435;28;45785;-68
2022/11/19 05:37:30;;;;;;;;;8.50;8.50;;;;;7.96;79.03;100194.59;5076879;28;45741;-69
2022/11/19 05:39:55;;;;;;;;;9.50;9.50;;;;;7.95;79.81;100186.78;5076223;28;45366;-69
2022/11/19 05:42:21;;;;;;;;;9.00;9.00;;;;;7.96;79.87;100183.28;5076951;27;45448;-69
2022/11/19 05:44:46;;;;;;;;;11.25;11.25;;;;;7.93;79.31;100179.00;5076779;27;45433;-69
2022/11/19 05:47:13;;;;;;;;;9.50;9.50;;;;;7.90;79.78;100184.34;5076404;27;45403;-69
2022/11/19 05:49:38;;;;;;;;;8.75;8.75;;;;;7.90;79.62;100184.34;5076521;28;45322;-71
2022/11/19 05:52:04;;;;;;;;;8.75;8.75;;;;;7.74;80.08;100163.06;5076564;28;45478;-71
2022/11/19 05:54:29;;;;;;;;;9.00;8.00;;;;;7.88;80.16;100184.38;5076732;28;45648;-69
2022/11/19 05:56:56;;;;;;;;;9.00;9.00;;;;;7.82;79.96;100183.75;5076049;27;45383;-68
2022/11/19 05:59:21;;;;;;;;;11.00;11.00;;;;;7.80;79.82;100182.97;5076329;28;45344;-69
2022/11/19 06:01:46;;;;;;;;;7.75;7.75;;;;;7.78;79.97;100184.78;5076073;27;48966;-69
2022/11/19 06:04:11;;;;;;;;;11.00;11.00;;;;;7.74;80.13;100179.66;5076409;28;45253;-68
2022/11/19 06:06:37;;;;;;;;;9.75;9.75;;;;;7.73;80.58;100185.81;5075938;27;45588;-69
2022/11/19 06:09:03;;;;;;;;;11.75;11.75;;;;;7.71;80.31;100186.75;5076435;28;45168;-68
2022/11/19 06:11:47;;;;;;;;;9.00;9.00;;;;;7.68;80.85;100185.09;5076559;28;45209;-70
2022/11/19 06:14:20;;;;;;;;;8.25;8.25;;;;;7.69;81.08;100191.19;5076879;27;45278;-71
2022/11/19 06:16:47;;;;;;;;;12.00;10.00;;;;;7.63;81.29;100181.78;5061770;27;45380;-68
2022/11/19 06:19:12;;;;;;;;;9.00;9.00;;;;;7.68;81.44;100197.31;5053744;28;45451;-68
2022/11/19 06:21:37;;;;;;;;;9.75;9.75;;;;;7.68;81.61;100195.56;5053068;28;54061;-69
2022/11/19 06:24:03;;;;;;;;;10.25;10.25;;;;;7.64;80.69;100187.88;5055073;28;45528;-68
2022/11/19 06:26:28;;;;;;;;;9.75;9.00;;;;;7.68;80.72;100200.81;5054087;28;46432;-68
2022/11/19 06:28:54;;;;;;;;;12.50;10.00;;;;;7.69;80.87;100197.28;5054719;28;45350;-68
2022/11/19 06:31:20;;;;;;;;;9.00;9.00;;;;;7.71;81.44;100202.47;5055240;28;45347;-69
2022/11/19 06:33:46;;;;;;;;;9.25;9.25;;;;;7.72;81.12;100205.03;5055865;28;45335;-69
2022/11/19 06:36:11;;;;;;;;;9.00;9.00;;;;;7.77;81.16;100204.84;5056760;28;46444;-70
2022/11/19 06:38:36;;;;;;;;;9.00;9.00;;;;;7.85;81.30;100209.84;5056433;28;45307;-69
2022/11/19 06:41:02;;;;;;;;;7.75;7.75;;;;;7.89;80.53;100208.81;5056093;28;45380;-69
2022/11/19 06:43:27;;;;;;;;;9.75;9.75;;;;;7.95;80.57;100210.34;5055852;28;45476;-70
2022/11/19 06:45:53;;;;;;;;;9.00;8.00;;;;;7.98;80.60;100212.91;5054350;28;46470;-69
2022/11/19 06:48:19;;;;;;;;;8.00;8.00;;;;;8.02;80.75;100223.19;5056243;28;45350;-68
2022/11/19 06:50:44;;;;;;;;;12.00;12.00;;;;;8.04;80.34;100224.00;5056024;28;45378;-70
2022/11/19 06:53:10;;;;;;;;;12.25;10.00;;;;;8.02;80.58;100219.75;5054486;28;45543;-69
2022/11/19 06:55:35;;;;;;;;;8.75;8.75;;;;;8.09;80.37;100221.22;5056387;28;45438;-69
2022/11/19 06:58:05;;;;;;;;;9.75;9.75;;;;;8.15;80.25;100235.84;5054229;28;46605;-69
2022/11/19 07:00:31;;;;;;;;;10.67;10.00;;;;;8.13;80.26;100243.78;5055856;28;45341;-70
2022/11/19 07:02:56;;;;;;;;;10.00;10.00;;;;;8.17;80.33;100232.28;5055614;28;45462;-69
2022/11/19 07:05:21;;;;;;;;;6.50;6.50;;;;;8.21;80.45;100246.13;5055510;28;45440;-70
2022/11/19 07:07:47;;;;;;;;;9.75;9.75;;;;;8.22;80.56;100242.59;5054754;28;45501;-69
2022/11/19 07:10:12;;;;;;;;;7.25;7.25;;;;;8.23;80.48;100240.84;5054538;28;45359;-70
2022/11/19 07:12:38;;;;;;;;;8.50;8.50;;;;;8.25;80.46;100241.63;5056131;28;45318;-69
2022/11/19 07:15:04;;;;;;;;;8.00;8.00;;;;;8.26;80.18;100252.03;5055523;28;45351;-69
2022/11/19 07:17:29;;;;;;;;;7.75;7.75;;;;;8.23;79.66;100244.31;5055536;28;45329;-70
2022/11/19 07:19:55;;;;;;;;;7.75;7.75;;;;;8.27;80.05;100260.78;5054667;28;45418;-71
2022/11/19 07:22:20;;;;;;;;;7.25;7.25;;;;;8.28;80.13;100265.13;5055873;28;45450;-70
2022/11/19 07:24:45;;;;;;;;;9.50;9.50;;;;;8.30;79.96;100261.50;5055896;28;45377;-69
2022/11/19 07:27:11;;;;;;;;;10.75;10.75;;;;;8.30;80.29;100261.50;5056543;28;45299;-69
2022/11/19 07:29:37;;;;;;;;;8.25;8.25;;;;;8.30;80.00;100256.28;5055488;28;45312;-71
2022/11/19 07:32:03;;;;;;;;;8.25;8.25;;;;;8.37;79.89;100267.41;5054835;28;45338;-69
2022/11/19 07:34:28;;;;;;;;;9.25;9.25;;;;;8.40;79.68;100267.28;5054906;28;46323;-69
2022/11/19 07:36:54;;;;;;;;;10.00;10.00;;;;;8.37;80.18;100270.03;5052818;28;45779;-70
2022/11/19 07:39:19;;;;;;;;;10.50;10.50;;;;;8.43;79.64;100282.03;5054413;28;45303;-68
2022/11/19 07:44:28;;;;;;;;;11.00;11.00;;;;;8.43;79.85;100282.91;5054085;28;45251;-69
2022/11/19 07:46:53;;;;;;;;;10.00;10.00;;;;;8.42;79.48;100290.81;5054190;28;45286;-70
2022/11/19 07:49:19;;;;;;;;;9.25;9.25;;;;;8.40;79.67;100277.78;5054343;28;45327;-70
2022/11/19 07:51:44;;;;;;;;;10.25;10.25;;;;;8.43;79.61;100282.91;5054562;28;45253;-70
2022/11/19 07:54:11;;;;;;;;;10.25;10.25;;;;;8.45;79.61;100288.94;5053025;28;46336;-69
2022/11/19 07:56:37;;;;;;;;;10.75;10.75;;;;;8.50;79.80;100296.69;5054497;28;45402;-69
2022/11/19 07:59:02;;;;;;;;;13.00;11.75;;;;;8.50;79.53;100301.94;5054411;28;45779;-69
2022/11/19 08:01:28;;;;;;;;;12.75;12.75;;;;;8.52;79.45;100297.50;5054285;28;45332;-68
2022/11/19 08:03:54;;;;;;;;;11.50;11.00;;;;;8.51;79.54;100295.78;5054064;28;46051;-69
2022/11/19 08:06:20;;;;;;;;;8.25;8.25;;;;;8.59;79.75;100300.72;5054300;28;45407;-70
2022/11/19 08:08:46;;;;;;;;;11.00;10.50;;;;;8.62;79.63;100309.34;5054343;28;45401;-69
2022/11/19 08:11:13;;;;;;;;;10.00;10.00;;;;;8.68;79.23;100316.13;5053231;28;45810;-69
2022/11/19 08:13:39;;;;;;;;;11.50;11.50;;;;;8.65;78.94;100310.16;5054356;28;45509;-70
2022/11/19 08:16:08;;;;;;;;;10.75;10.75;;;;;8.59;78.93;100324.31;5052781;28;45538;-70
2022/11/19 08:18:34;;;;;;;;;11.25;11.25;;;;;8.59;78.90;100333.06;5054514;28;45437;-68
2022/11/19 08:21:10;;;;;;;;;12.75;12.75;;;;;8.59;79.11;100337.44;5054412;28;45359;-70
2022/11/19 08:23:38;;;;;;;;;11.50;11.50;;;;;8.60;78.90;100342.63;5053740;28;45317;-70
2022/11/19 08:26:06;;;;;;;;;9.00;9.00;;;;;8.60;78.84;100344.38;5053935;28;45401;-71
2022/11/19 08:28:32;;;;;;;;;11.00;11.00;;;;;8.60;78.61;100354.88;5054154;28;45363;-69
2022/11/19 08:31:06;;;;;;;;;8.25;8.25;;;;;8.60;78.52;100352.25;5057044;28;45479;-70
2022/11/19 08:33:31;;;;;;;;;8.25;8.25;;;;;8.58;78.52;100354.94;5057575;28;45475;-70
2022/11/19 08:35:56;;;;;;;;;8.00;8.00;;;;;8.55;78.21;100349.81;5057800;28;45414;-69
2022/11/19 08:38:22;;;;;;;;;10.00;10.00;;;;;8.56;77.94;100359.38;5058107;28;45381;-71
2022/11/19 08:40:51;;;;;;;;;7.75;7.75;;;;;8.55;78.13;100359.44;5058366;28;45551;-70
2022/11/19 08:43:16;;;;;;;;;7.50;7.50;;;;;8.42;77.83;100336.25;5055858;28;47197;-71
2022/11/19 08:45:52;;;;;;;;;10.75;10.75;;;;;8.54;78.26;100365.59;5057245;28;45319;-70
2022/11/19 08:48:18;;;;;;;;;8.25;8.25;;;;;8.47;78.19;100357.03;5057371;28;45279;-71
2022/11/19 08:50:44;;;;;;;;;9.75;9.75;;;;;8.45;78.23;100361.47;5057588;28;45558;-72
2022/11/19 08:53:09;;;;;;;;;11.00;11.00;;;;;8.49;78.77;100368.38;5057563;28;46738;-71
2022/11/19 08:55:34;;;;;;;;;10.00;10.00;;;;;8.55;78.49;100369.91;5057371;28;45349;-71
2022/11/19 08:58:05;;;;;;;;;12.25;12.25;;;;;8.61;78.28;100361.84;5057324;28;45218;-70
2022/11/19 09:00:32;;;;;;;;;21.25;21.25;;;;;8.64;78.50;100364.34;5057435;28;45223;-70
2022/11/19 09:02:58;;;;;;;;;10.75;10.75;;;;;8.68;78.38;100371.19;5056573;28;46490;-70
2022/11/19 09:05:23;;;;;;;;;12.00;12.00;;;;;8.72;78.37;100371.94;5056623;28;45291;-71
2022/11/19 09:07:49;;;;;;;;;11.00;11.00;;;;;8.79;78.41;100370.81;5056538;28;45520;-70
2022/11/19 09:10:15;;;;;;;;;9.75;9.75;;;;;8.84;78.06;100384.63;5055554;28;45628;-69
2022/11/19 09:12:40;;;;;;;;;14.75;10.75;;;;;8.89;77.56;100384.44;5056684;28;46212;-69
2022/11/19 09:15:07;;;;;;;;;8.75;8.75;;;;;8.94;77.86;100384.28;5056212;28;45331;-70
2022/11/19 09:17:32;;;;;;;;;7.25;6.50;;;;;8.94;77.39;100379.88;5056528;28;45443;-70
2022/11/19 09:19:57;;;;;;;;;7.00;7.00;;;;;8.98;77.29;100386.72;5055217;28;45410;-70
2022/11/19 09:22:23;;;;;;;;;9.25;9.25;;;;;8.97;77.23;100376.31;5056170;28;45459;-70
2022/11/19 09:24:48;;;;;;;;;13.75;13.75;;;;;9.02;77.26;100376.97;5056705;28;45380;-70
2022/11/19 09:27:13;;;;;;;;;11.00;10.00;;;;;9.08;76.95;100379.38;5056802;28;45435;-69
2022/11/19 09:29:39;;;;;;;;;8.25;8.25;;;;;9.14;77.05;100383.56;5056640;28;45371;-70
2022/11/19 09:32:04;;;;;;;;;9.25;9.25;;;;;9.17;76.83;100368.53;5056350;28;45338;-69
2022/11/19 09:34:30;;;;;;;;;8.75;8.75;;;;;9.12;76.90;100359.97;5037871;28;45451;-70
2022/11/19 09:36:57;;;;;;;;;6.50;6.50;;;;;9.33;76.47;100383.69;5056475;28;45337;-70
2022/11/19 09:39:22;;;;;;;;;8.75;8.75;;;;;9.40;76.04;100397.47;5056280;28;45205;-70
2022/11/19 09:42:09;;;;;;;;;6.75;6.75;;;;;9.43;75.90;100392.09;5054565;28;45358;-69
2022/11/19 09:45:08;;;;;;;;;10.25;10.25;;;;;9.46;75.60;100391.97;5056071;28;45297;-70
2022/11/19 09:47:47;;;;;;;;;10.50;10.50;;;;;9.49;75.53;100395.31;5056520;28;45450;-71
2022/11/19 09:50:18;;;;;;;;;9.75;9.50;;;;;9.56;75.35;100393.31;5056709;28;45501;-70
2022/11/19 09:52:53;;;;;;;;;4.50;4.50;;;;;9.62;75.20;100398.34;5056514;28;45697;-70
2022/11/19 09:55:38;;;;;;;;;11.75;11.75;;;;;9.64;75.23;100400.91;5056127;28;45437;-69
2022/11/19 09:58:13;;;;;;;;;5.00;5.00;;;;;9.70;74.98;100400.66;5056170;28;45445;-71
2022/11/19 10:00:39;;;;;;;;;9.00;9.00;;;;;9.72;74.66;100403.22;5056090;28;45343;-70
2022/11/19 10:03:13;;;;;;;;;8.00;8.00;;;;;9.75;74.48;100397.84;5055381;28;45402;-69
2022/11/19 10:05:51;;;;;;;;;11.50;11.50;;;;;9.79;74.30;100400.31;5054096;28;45891;-69
2022/11/19 10:08:25;;;;;;;;;14.00;14.00;;;;;9.84;74.83;100394.84;5055683;28;45381;-70
2022/11/19 10:10:59;;;;;;;;;11.00;11.00;;;;;9.89;73.68;100402.56;5055461;28;45304;-70
2022/11/19 10:13:48;;;;;;;;;11.50;11.50;;;;;9.93;73.67;100405.00;5055082;28;45339;-69
2022/11/19 10:16:51;;;;;;;;;10.00;10.00;;;;;9.94;73.68;100403.22;5055501;28;45320;-69
2022/11/19 10:19:30;;;;;;;;;12.25;12.25;;;;;9.97;73.79;100400.47;5055579;28;45435;-70
2022/11/19 10:22:44;;;;;;;;;12.00;12.00;;;;;10.00;73.88;100402.97;5055480;28;45383;-69
2022/11/19 10:25:10;;;;;;;;;12.00;12.00;;;;;10.01;73.28;100396.81;5055362;27;47005;-71
2022/11/19 10:27:48;;;;;;;;;11.75;11.75;;;;;10.01;73.80;100396.81;5055838;28;45286;-69
2022/11/19 10:30:18;;;;;;;;;13.25;13.00;;;;;10.00;73.82;100395.09;5055648;28;45325;-68
2022/11/19 10:32:54;;;;;;;;;10.00;10.00;;;;;9.92;73.41;100382.25;5055685;28;45538;-71
2022/11/19 10:35:31;;;;;;;;;11.75;11.75;;;;;9.89;73.84;100392.06;5055933;28;45891;-70
2022/11/19 10:38:12;;;;;;;;;9.50;9.50;;;;;9.84;73.68;100394.84;5055237;28;45316;-70
2022/11/19 10:40:48;;;;;;;;;6.75;6.75;;;;;9.76;73.94;100383.78;5054785;28;45194;-70
2022/11/19 10:43:36;;;;;;;;;13.25;12.75;;;;;9.76;73.99;100394.31;5055359;28;45435;-70
2022/11/19 10:46:05;;;;;;;;;13.25;13.25;;;;;9.76;74.04;100389.06;5054604;28;46151;-70
2022/11/19 10:48:45;;;;;;;;;10.25;9.75;;;;;9.75;73.69;100397.84;5053287;28;45396;-70
2022/11/19 10:51:27;;;;;;;;;12.50;12.50;;;;;9.72;73.71;100395.34;5055046;28;45204;-69
2022/11/19 10:53:54;;;;;;;;;14.75;14.75;;;;;9.70;73.88;100392.78;5054862;28;45227;-70
2022/11/19 10:56:37;;;;;;;;;11.25;11.25;;;;;9.71;74.20;100383.13;5055016;28;46591;-70
2022/11/19 10:59:20;;;;;;;;;11.00;11.00;;;;;9.77;74.10;100391.63;5055122;28;45201;-70
2022/11/19 11:01:49;;;;;;;;;14.00;14.00;;;;;9.80;73.60;100393.25;5055132;28;45243;-69
2022/11/19 11:04:19;;;;;;;;;15.25;14.50;;;;;9.83;74.05;100384.41;5055057;28;45249;-69
2022/11/19 11:06:57;;;;;;;;;20.75;20.75;;;;;9.87;73.56;100386.84;5054767;28;45399;-70
2022/11/19 11:09:33;;;;;;;;;15.50;14.75;;;;;10.01;73.63;100386.28;5054218;28;45403;-70
2022/11/19 11:15:20;;;;;;;;;16.25;16.25;;;;;10.18;72.98;100382.09;5054831;28;45450;-70
2022/11/19 11:17:47;;;;;;;;;12.50;12.50;;;;;10.26;72.51;100389.69;5054493;27;46048;-70
2022/11/19 11:20:16;;;;;;;;;12.00;12.00;;;;;10.29;72.48;100394.81;5054668;28;45336;-70
2022/11/19 11:22:42;;;;;;;;;14.00;14.00;;;;;10.30;72.25;100397.38;5054562;28;45363;-69
2022/11/19 11:25:27;;;;;;;;;14.00;14.00;;;;;10.33;72.40;100391.97;5054775;28;45538;-70
2022/11/19 11:28:06;;;;;;;;;13.50;13.50;;;;;10.40;71.68;100383.88;5054418;28;46444;-70
2022/11/19 11:30:32;;;;;;;;;14.75;14.75;;;;;10.42;72.08;100379.38;5054360;28;45187;-71
2022/11/19 11:33:24;;;;;;;;;11.00;11.00;;;;;10.46;71.25;100394.13;5054827;28;45251;-71
2022/11/19 11:35:52;;;;;;;;;10.75;10.75;;;;;10.42;71.13;100385.53;5055269;28;45387;-69
2022/11/19 11:38:21;;;;;;;;;12.75;12.75;;;;;10.36;70.93;100391.00;5053857;28;45597;-69
2022/11/19 11:41:20;;;;;;;;;13.00;12.00;;;;;10.32;71.26;100378.91;5054197;28;45391;-70
2022/11/19 11:44:00;;;;;;;;;11.50;11.50;;;;;10.31;71.90;100388.56;5053990;28;45408;-70
2022/11/19 11:46:35;;;;;;;;;14.75;14.50;;;;;10.33;71.76;100378.00;5054162;28;45287;-70
2022/11/19 11:49:01;;;;;;;;;13.25;13.25;;;;;10.30;72.18;100363.19;5054226;28;45494;-71
2022/11/19 11:51:38;;;;;;;;;15.25;14.25;;;;;10.36;71.66;100373.44;5054138;28;45907;-70
2022/11/19 11:54:17;;;;;;;;;15.75;15.50;;;;;10.47;71.83;100382.69;5054166;28;45354;-70
2022/11/19 11:56:43;;;;;;;;;15.50;15.50;;;;;10.54;71.33;100373.59;5054953;28;45306;-69